< < Back
Terminal Aerodrome Forecast


Current Version              Previous Versions:   1  2  3  4  5  6  7  8  9  

Terminal Aerodrome Forecast

764
FTUS42 KGSP 310531
TAFHKY
TAF
KHKY 310531Z 3106/0106 VRB02KT P6SM SCT250
     FM310700 VRB02KT 5SM BR SCT040
     FM311200 36004KT 6SM BR SCT080
     FM311700 06005KT P6SM SCT050
     FM311800 07004KT P6SM BKN050 PROB30 3119/0101 4SM -TSRA
      OVC025CB=



Latest METAR

360
SAUS70 KWBC 311000 RRI
MTRHKY
METAR KHKY 310953Z AUTO 32003KT 9SM CLR 18/18 A2997 RMK AO2 SLP126
T01780178


USA.gov is the U.S. government's official web portal to all federal, state and local government web resources and services.